Wakefield, Texas
Current Conditions -  °F | °C
As of 12:53 PM on Thursday 27 Nov 2014 (Local Time) from KLFK Reporting Station
Clear Clear  
Wind Chill: 64°   Ceiling: Unl
Heat Index: 64°   Visibility: 10mi
Dew Point: 26°   Wind: 6mph
Humidity: 24%   Direction: NA
Pressure: 30.45"   Gusts: NA
Location:  31.024°N, 94.7686°W
Report Text: KLFK 271853Z AUTO VRB05KT 10SM CLR 18/M03 A3045 RMK AO2 SLP310 T01781033 $
Loading
Personal Weather Stations






























Interactive Weather Map New forecast layout! Learn more

10-Day Weather Forecast

Advertisements
Track Severe Weather on mobile